createdAt,value
2018-05-31T00:01:36.602Z,21.70
2018-05-31T00:04:04.359Z,21.70
2018-05-31T00:06:32.119Z,21.70
2018-05-31T00:08:59.906Z,21.70
2018-05-31T00:11:27.653Z,21.70
2018-05-31T00:13:55.366Z,21.80
2018-05-31T00:16:23.123Z,21.80
2018-05-31T00:18:50.908Z,21.80
2018-05-31T00:21:19.393Z,21.60
2018-05-31T00:23:47.898Z,21.50
2018-05-31T00:26:15.659Z,21.50
2018-05-31T00:28:43.407Z,21.40
2018-05-31T00:31:12.396Z,21.30
2018-05-31T00:33:40.901Z,21.30
2018-05-31T00:36:08.622Z,21.40
2018-05-31T00:38:36.499Z,21.40
2018-05-31T00:41:05.013Z,21.50
2018-05-31T00:43:32.736Z,21.40
2018-05-31T00:46:01.272Z,21.40
2018-05-31T00:48:29.017Z,21.40
2018-05-31T00:50:56.900Z,21.40
2018-05-31T00:53:24.682Z,21.40
2018-05-31T00:56:04.337Z,21.40
2018-05-31T00:58:32.835Z,21.40
2018-05-31T01:01:00.597Z,21.40
2018-05-31T01:03:29.505Z,21.40
2018-05-31T01:05:57.229Z,21.40
2018-05-31T01:08:24.969Z,21.40
2018-05-31T01:10:52.736Z,21.50
2018-05-31T01:13:20.467Z,21.30
2018-05-31T01:15:48.229Z,21.10
2018-05-31T01:18:15.949Z,20.90
2018-05-31T01:20:43.812Z,20.80
2018-05-31T01:23:12.339Z,21.00
2018-05-31T01:25:40.070Z,21.00
2018-05-31T01:28:08.610Z,21.10
2018-05-31T01:30:36.370Z,21.10
2018-05-31T01:33:04.138Z,21.00
2018-05-31T01:35:31.893Z,21.00
2018-05-31T01:38:11.680Z,21.10
2018-05-31T01:40:40.191Z,21.10
2018-05-31T01:43:07.940Z,21.10
2018-05-31T01:45:36.459Z,20.70
2018-05-31T01:48:04.240Z,20.70
2018-05-31T01:50:32.473Z,20.60
2018-05-31T01:53:00.205Z,20.70
2018-05-31T01:55:28.718Z,20.70
2018-05-31T01:57:56.640Z,20.70
2018-05-31T02:00:24.381Z,20.70
2018-05-31T02:02:52.117Z,20.70
2018-05-31T02:05:19.888Z,20.70
2018-05-31T02:07:47.662Z,20.80
2018-05-31T02:10:15.402Z,20.70
2018-05-31T02:12:43.122Z,20.60
2018-05-31T02:15:10.892Z,20.70
2018-05-31T02:17:39.406Z,20.70
2018-05-31T02:20:07.174Z,20.70
2018-05-31T02:22:34.904Z,20.70
2018-05-31T02:25:03.510Z,20.80
2018-05-31T02:27:32.056Z,20.80
2018-05-31T02:29:59.804Z,20.80
2018-05-31T02:32:27.529Z,20.90
2018-05-31T02:34:55.401Z,20.90
2018-05-31T02:37:23.136Z,20.80
2018-05-31T02:39:50.958Z,20.80
2018-05-31T02:42:18.746Z,20.80
2018-05-31T02:44:46.499Z,20.70
2018-05-31T02:47:14.721Z,20.80
2018-05-31T02:49:42.492Z,20.70
2018-05-31T02:52:10.215Z,20.40
2018-05-31T02:54:39.080Z,20.40
2018-05-31T02:57:06.806Z,20.40
2018-05-31T02:59:34.548Z,20.50
2018-05-31T03:02:02.329Z,20.40
2018-05-31T03:04:30.040Z,20.50
2018-05-31T03:06:57.803Z,20.50
2018-05-31T03:09:25.515Z,20.40
2018-05-31T03:11:53.500Z,20.40
2018-05-31T03:14:21.211Z,20.40
2018-05-31T03:16:49.759Z,20.40
2018-05-31T03:19:17.525Z,20.30
2018-05-31T03:21:45.286Z,20.30
2018-05-31T03:24:13.058Z,20.40
2018-05-31T03:26:41.281Z,20.40
2018-05-31T03:29:09.020Z,20.40
2018-05-31T03:31:38.040Z,20.50
2018-05-31T03:34:05.800Z,20.50
2018-05-31T03:36:33.592Z,20.40
2018-05-31T03:39:01.370Z,20.40
2018-05-31T03:41:29.101Z,20.40
2018-05-31T03:43:57.267Z,20.20
2018-05-31T03:46:25.008Z,20.30
2018-05-31T03:48:53.530Z,20.50
2018-05-31T03:51:21.326Z,20.50
2018-05-31T03:53:49.836Z,20.70
2018-05-31T03:56:18.326Z,20.70
2018-05-31T03:58:46.196Z,20.70
2018-05-31T04:01:13.919Z,20.90
2018-05-31T04:03:41.684Z,21.00
2018-05-31T04:06:09.477Z,21.00
2018-05-31T04:08:37.200Z,21.20
2018-05-31T04:11:05.062Z,21.40
2018-05-31T04:13:32.782Z,21.50
2018-05-31T04:16:00.496Z,21.90
2018-05-31T04:18:28.239Z,22.30
2018-05-31T04:20:56.868Z,22.60
2018-05-31T04:23:25.386Z,23.20
2018-05-31T04:25:53.173Z,23.20
2018-05-31T04:28:20.924Z,23.40
2018-05-31T04:30:48.637Z,23.70
2018-05-31T04:33:17.259Z,24.40
2018-05-31T04:35:44.965Z,24.40
2018-05-31T04:38:12.702Z,24.30
2018-05-31T04:40:40.928Z,24.50
2018-05-31T04:43:09.403Z,24.40
2018-05-31T04:45:37.905Z,24.40
2018-05-31T04:48:05.656Z,24.40
2018-05-31T04:50:33.411Z,24.40
2018-05-31T04:53:02.064Z,25.10
2018-05-31T04:55:29.813Z,25.00
2018-05-31T04:57:57.589Z,25.40
2018-05-31T05:00:26.208Z,26.10
2018-05-31T05:02:54.724Z,26.60
2018-05-31T05:05:22.477Z,26.60
2018-05-31T05:07:50.264Z,27.20
2018-05-31T05:10:18.035Z,27.60
2018-05-31T05:12:45.761Z,28.20
2018-05-31T05:15:13.573Z,28.80
2018-05-31T05:17:42.403Z,29.20
2018-05-31T05:20:10.289Z,29.60
2018-05-31T05:22:38.727Z,29.70
2018-05-31T05:25:07.226Z,30.40
2018-05-31T05:27:35.739Z,30.30
2018-05-31T05:30:03.527Z,30.30
2018-05-31T05:32:31.311Z,30.20
2018-05-31T05:34:59.801Z,30.10
2018-05-31T05:37:28.323Z,30.30
2018-05-31T05:39:56.571Z,30.30
2018-05-31T05:42:24.311Z,30.20
2018-05-31T05:44:52.809Z,30.90
2018-05-31T05:47:20.564Z,30.80
2018-05-31T05:49:49.056Z,31.20
2018-05-31T05:52:17.017Z,31.20
2018-05-31T05:54:45.531Z,31.40
2018-05-31T05:57:13.292Z,31.30
2018-05-31T05:59:41.052Z,31.10
2018-05-31T06:02:08.955Z,31.20
2018-05-31T06:04:36.660Z,31.70
2018-05-31T06:07:05.140Z,32.10
2018-05-31T06:09:33.663Z,32.40
2018-05-31T06:12:01.372Z,32.40
2018-05-31T06:14:29.100Z,32.20
2018-05-31T06:16:56.860Z,31.90
2018-05-31T06:19:24.628Z,31.60
2018-05-31T06:21:52.335Z,31.80
2018-05-31T06:24:20.812Z,32.10
2018-05-31T06:26:48.617Z,32.10
2018-05-31T06:29:16.345Z,32.20
2018-05-31T06:31:44.063Z,32.40
2018-05-31T06:34:11.851Z,32.40
2018-05-31T06:36:40.752Z,32.20
2018-05-31T06:39:09.216Z,32.30
2018-05-31T06:41:36.946Z,32.20
2018-05-31T06:44:04.708Z,32.60
2018-05-31T06:46:32.454Z,32.50
2018-05-31T06:49:00.165Z,32.40
2018-05-31T06:51:28.116Z,32.20
2018-05-31T06:53:55.820Z,32.00
2018-05-31T06:56:24.295Z,31.80
2018-05-31T06:58:52.795Z,32.10
2018-05-31T07:01:20.577Z,32.00
2018-05-31T07:03:48.272Z,32.40
2018-05-31T07:06:15.963Z,32.90
2018-05-31T07:08:44.562Z,32.60
2018-05-31T07:11:12.332Z,32.60
2018-05-31T07:13:40.048Z,32.20
2018-05-31T07:16:07.780Z,32.10
2018-05-31T07:18:35.484Z,31.90
2018-05-31T07:21:03.989Z,32.40
2018-05-31T07:23:31.688Z,32.40
2018-05-31T07:25:59.463Z,32.30
2018-05-31T07:28:27.225Z,32.50
2018-05-31T07:30:54.940Z,32.50
2018-05-31T07:33:22.775Z,32.60
2018-05-31T07:35:50.466Z,33.00
2018-05-31T07:38:18.184Z,33.10
2018-05-31T07:40:46.375Z,33.00
2018-05-31T07:43:14.840Z,32.80
2018-05-31T07:45:42.595Z,32.80
2018-05-31T07:48:10.320Z,33.00
2018-05-31T07:50:38.130Z,33.20
2018-05-31T07:53:05.919Z,33.40
2018-05-31T07:55:34.396Z,33.50
2018-05-31T07:58:02.883Z,32.90
2018-05-31T08:00:31.499Z,33.50
2018-05-31T08:02:59.293Z,33.40
2018-05-31T08:05:26.995Z,33.50
2018-05-31T08:07:55.503Z,32.80
2018-05-31T08:10:23.260Z,32.80
2018-05-31T08:12:50.946Z,32.70
2018-05-31T08:15:18.649Z,32.70
2018-05-31T08:17:47.190Z,32.70
2018-05-31T08:20:14.905Z,32.80
2018-05-31T08:22:43.375Z,32.80
2018-05-31T08:25:11.989Z,33.20
2018-05-31T08:27:39.696Z,33.20
2018-05-31T08:30:07.424Z,32.90
2018-05-31T08:32:35.157Z,32.90
2018-05-31T08:35:03.679Z,33.00
2018-05-31T08:37:31.392Z,33.00
2018-05-31T08:39:59.915Z,33.10
2018-05-31T08:42:27.625Z,33.00
2018-05-31T08:44:56.226Z,32.90
2018-05-31T08:47:24.725Z,33.20
2018-05-31T08:49:52.443Z,33.20
2018-05-31T08:52:20.187Z,33.30
2018-05-31T08:54:47.876Z,33.30
2018-05-31T08:57:15.709Z,32.90
2018-05-31T08:59:43.416Z,32.70
2018-05-31T09:02:11.918Z,32.50
2018-05-31T09:04:39.861Z,32.50
2018-05-31T09:07:08.406Z,32.50
2018-05-31T09:09:36.103Z,32.50
2018-05-31T09:12:04.659Z,32.50
2018-05-31T09:14:32.367Z,32.50
2018-05-31T09:17:00.508Z,32.70
2018-05-31T09:19:28.204Z,33.10
2018-05-31T09:21:55.957Z,33.30
2018-05-31T09:24:24.435Z,32.90
2018-05-31T09:26:52.167Z,32.90
2018-05-31T09:29:19.881Z,32.60
2018-05-31T09:31:47.614Z,32.40
2018-05-31T09:34:16.087Z,32.30
2018-05-31T09:36:44.915Z,32.60
2018-05-31T09:39:12.640Z,32.60
2018-05-31T09:41:41.109Z,33.40
2018-05-31T09:44:08.842Z,33.50
2018-05-31T09:46:36.588Z,33.50
2018-05-31T09:49:04.332Z,33.50
2018-05-31T09:51:32.074Z,33.30
2018-05-31T09:54:00.555Z,33.50
2018-05-31T09:56:29.050Z,33.30
2018-05-31T09:58:56.775Z,33.30
2018-05-31T10:01:24.970Z,33.00
2018-05-31T10:03:53.479Z,33.30
2018-05-31T10:06:21.201Z,33.30
2018-05-31T10:08:49.738Z,33.90
2018-05-31T10:11:17.624Z,33.90
2018-05-31T10:13:45.492Z,34.10
2018-05-31T10:16:13.867Z,34.00
2018-05-31T10:18:41.734Z,33.90
2018-05-31T10:21:09.614Z,33.70
2018-05-31T10:23:37.464Z,33.60
2018-05-31T10:26:05.174Z,33.60
2018-05-31T10:28:32.872Z,33.80
2018-05-31T10:31:01.373Z,33.80
2018-05-31T10:33:29.132Z,33.80
2018-05-31T10:35:56.833Z,33.90
2018-05-31T10:38:25.330Z,33.30
2018-05-31T10:40:53.023Z,33.30
2018-05-31T10:43:20.903Z,32.80
2018-05-31T10:45:48.765Z,32.20
2018-05-31T10:48:16.632Z,32.30
2018-05-31T10:50:44.505Z,32.60
2018-05-31T10:53:12.363Z,33.10
2018-05-31T10:55:40.227Z,32.90
2018-05-31T10:58:08.095Z,32.80
2018-05-31T11:00:35.962Z,33.00
2018-05-31T11:03:04.032Z,32.50
2018-05-31T11:05:31.897Z,32.60
2018-05-31T11:08:12.635Z,33.10
2018-05-31T11:10:42.010Z,33.40
2018-05-31T11:13:10.481Z,33.90
2018-05-31T11:15:39.099Z,33.80
2018-05-31T11:18:06.813Z,33.80
2018-05-31T11:20:34.521Z,34.00
2018-05-31T11:23:02.253Z,34.10
2018-05-31T11:25:30.725Z,33.50
2018-05-31T11:27:59.262Z,33.70
2018-05-31T11:30:26.964Z,33.70
2018-05-31T11:32:55.517Z,33.60
2018-05-31T11:35:23.249Z,33.50
2018-05-31T11:37:50.975Z,33.40
2018-05-31T11:40:19.488Z,33.50
2018-05-31T11:42:50.277Z,33.50
2018-05-31T11:45:19.486Z,33.60
2018-05-31T11:47:47.242Z,33.50
2018-05-31T11:50:14.981Z,33.30
2018-05-31T11:52:42.884Z,33.00
2018-05-31T11:55:11.350Z,33.10
2018-05-31T11:57:39.832Z,33.50
2018-05-31T12:00:07.606Z,33.40
2018-05-31T12:02:36.079Z,33.90
2018-05-31T12:05:05.148Z,33.90
2018-05-31T12:07:33.680Z,33.70
2018-05-31T12:10:02.260Z,33.70
2018-05-31T12:12:31.212Z,33.30
2018-05-31T12:14:59.003Z,33.10
2018-05-31T12:17:27.576Z,32.40
2018-05-31T12:19:57.494Z,32.10
2018-05-31T12:22:25.958Z,31.90
2018-05-31T12:24:53.699Z,31.90
2018-05-31T12:27:21.571Z,31.60
2018-05-31T12:29:49.416Z,31.40
2018-05-31T12:32:17.213Z,31.30
2018-05-31T12:34:45.888Z,30.80
2018-05-31T12:37:13.907Z,30.80
2018-05-31T12:39:41.717Z,30.60
2018-05-31T12:42:10.744Z,30.20
2018-05-31T12:44:39.277Z,30.00
2018-05-31T12:47:06.969Z,30.00
2018-05-31T12:49:34.667Z,30.00
2018-05-31T12:52:02.732Z,30.00
2018-05-31T12:54:30.442Z,29.80
2018-05-31T12:56:58.151Z,29.50
2018-05-31T12:59:26.641Z,28.90
2018-05-31T13:01:55.052Z,28.90
2018-05-31T13:04:22.764Z,28.90
2018-05-31T13:06:51.241Z,28.70
2018-05-31T13:09:19.870Z,28.50
2018-05-31T13:11:47.647Z,28.50
2018-05-31T13:14:15.363Z,28.30
2018-05-31T13:16:43.885Z,27.60
2018-05-31T13:19:11.583Z,27.60
2018-05-31T13:21:40.112Z,27.30
2018-05-31T13:24:08.531Z,27.30
2018-05-31T13:26:36.244Z,27.20
2018-05-31T13:29:03.956Z,27.00
2018-05-31T13:31:31.709Z,27.10
2018-05-31T13:33:59.542Z,27.00
2018-05-31T13:36:27.235Z,27.10
2018-05-31T13:38:54.937Z,27.00
2018-05-31T13:41:23.462Z,27.00
2018-05-31T13:43:51.179Z,26.90
2018-05-31T13:46:20.055Z,26.90
2018-05-31T13:48:48.520Z,26.90
2018-05-31T13:51:16.207Z,26.90
2018-05-31T13:53:44.713Z,26.60
2018-05-31T13:56:12.419Z,26.60
2018-05-31T13:58:40.206Z,26.40
2018-05-31T14:01:09.475Z,26.20
2018-05-31T14:03:37.174Z,26.20
2018-05-31T14:06:06.578Z,25.60
2018-05-31T14:08:35.329Z,25.40
2018-05-31T14:11:03.194Z,25.30
2018-05-31T14:13:31.164Z,25.30
2018-05-31T14:15:59.025Z,25.10
2018-05-31T14:18:27.259Z,25.00
2018-05-31T14:20:54.960Z,24.90
2018-05-31T14:23:22.678Z,24.90
2018-05-31T14:25:50.425Z,24.90
2018-05-31T14:28:18.891Z,24.90
2018-05-31T14:30:47.725Z,24.70
2018-05-31T14:33:15.453Z,24.70
2018-05-31T14:35:43.951Z,24.50
2018-05-31T14:38:11.686Z,24.50
2018-05-31T14:40:40.175Z,24.50
2018-05-31T14:43:08.835Z,24.60
2018-05-31T14:45:36.550Z,24.60
2018-05-31T14:48:04.304Z,24.70
2018-05-31T14:50:32.057Z,24.50
2018-05-31T14:53:00.536Z,24.40
2018-05-31T14:55:29.513Z,24.40
2018-05-31T14:57:57.985Z,24.30
2018-05-31T15:00:25.687Z,24.30
2018-05-31T15:02:53.432Z,24.20
2018-05-31T15:05:21.905Z,23.90
2018-05-31T15:07:49.615Z,23.80
2018-05-31T15:10:18.032Z,23.50
2018-05-31T15:12:45.745Z,22.80
2018-05-31T15:15:13.455Z,22.50
2018-05-31T15:17:41.196Z,22.50
2018-05-31T15:20:08.939Z,22.10
2018-05-31T15:22:36.656Z,22.00
2018-05-31T15:25:05.239Z,21.70
2018-05-31T15:27:33.726Z,21.60
2018-05-31T15:30:02.266Z,21.60
2018-05-31T15:32:30.008Z,21.60
2018-05-31T15:34:57.880Z,21.60
2018-05-31T15:37:25.592Z,21.50
2018-05-31T15:39:54.064Z,21.50
2018-05-31T15:42:21.909Z,21.50
2018-05-31T15:44:49.651Z,21.50
2018-05-31T15:47:17.368Z,21.50
2018-05-31T15:49:45.864Z,21.60
2018-05-31T15:52:13.569Z,21.60
2018-05-31T15:54:41.348Z,21.60
2018-05-31T15:57:09.068Z,21.80
2018-05-31T15:59:36.784Z,21.70
2018-05-31T16:02:05.327Z,21.60
2018-05-31T16:04:33.059Z,21.60
2018-05-31T16:07:00.839Z,21.60
2018-05-31T16:09:28.547Z,21.50
2018-05-31T16:11:56.259Z,21.50
2018-05-31T16:14:24.491Z,21.50
2018-05-31T16:16:52.976Z,21.50
2018-05-31T16:19:21.444Z,21.40
2018-05-31T16:21:49.203Z,21.40
2018-05-31T16:24:17.012Z,21.10
2018-05-31T16:26:44.766Z,21.10
2018-05-31T16:29:12.480Z,21.10
2018-05-31T16:31:40.247Z,21.20
2018-05-31T16:34:07.956Z,21.30
2018-05-31T16:36:36.104Z,21.40
2018-05-31T16:39:04.683Z,21.30
2018-05-31T16:41:33.181Z,21.10
2018-05-31T16:44:01.712Z,20.90
2018-05-31T16:46:29.426Z,20.80
2018-05-31T16:48:57.986Z,20.90
2018-05-31T16:51:25.713Z,20.80
2018-05-31T16:53:53.877Z,21.00
2018-05-31T16:56:21.602Z,21.10
2018-05-31T16:58:50.074Z,21.10
2018-05-31T17:01:18.690Z,21.10
2018-05-31T17:03:46.406Z,21.20
2018-05-31T17:06:14.112Z,21.20
2018-05-31T17:08:41.883Z,21.30
2018-05-31T17:11:09.584Z,21.50
2018-05-31T17:13:37.369Z,21.60
2018-05-31T17:16:06.704Z,21.60
2018-05-31T17:18:41.174Z,21.60
2018-05-31T17:21:10.044Z,21.90
2018-05-31T17:23:37.752Z,21.90
2018-05-31T17:26:06.257Z,22.00
2018-05-31T17:28:34.014Z,22.00
2018-05-31T17:31:01.725Z,22.10
2018-05-31T17:33:29.920Z,22.10
2018-05-31T17:35:58.640Z,22.10
2018-05-31T17:38:27.486Z,22.10
2018-05-31T17:40:55.333Z,22.20
2018-05-31T17:43:23.548Z,22.30
2018-05-31T17:45:52.166Z,22.40
2018-05-31T17:48:20.770Z,22.40
2018-05-31T17:50:48.675Z,22.40
2018-05-31T17:53:18.040Z,22.40
2018-05-31T17:55:45.867Z,22.40
2018-05-31T17:58:15.341Z,22.40
2018-05-31T18:00:43.399Z,22.40
2018-05-31T18:03:11.483Z,22.40
2018-05-31T18:05:40.443Z,22.40
2018-05-31T18:08:08.723Z,22.40
2018-05-31T18:10:37.810Z,22.30
2018-05-31T18:13:05.631Z,22.30
2018-05-31T18:15:33.498Z,22.30
2018-05-31T18:18:01.201Z,22.40
2018-05-31T18:20:28.936Z,22.40
2018-05-31T18:22:56.673Z,22.40
2018-05-31T18:25:25.183Z,22.30
2018-05-31T18:27:52.972Z,22.30
2018-05-31T18:30:20.735Z,22.30
2018-05-31T18:32:48.445Z,22.10
2018-05-31T18:35:21.895Z,21.80
2018-05-31T18:37:49.622Z,21.70
2018-05-31T18:40:17.359Z,21.60
2018-05-31T18:42:53.939Z,21.70
2018-05-31T18:45:22.060Z,21.60
2018-05-31T18:47:50.647Z,21.60
2018-05-31T18:50:18.487Z,21.60
2018-05-31T18:52:47.091Z,21.70
2018-05-31T18:55:14.904Z,21.50
2018-05-31T18:57:42.632Z,21.60
2018-05-31T19:00:10.408Z,21.60
2018-05-31T19:02:38.905Z,21.50
2018-05-31T19:05:06.805Z,21.50
2018-05-31T19:07:34.517Z,21.50
2018-05-31T19:10:04.003Z,21.50
2018-05-31T19:12:37.449Z,21.50
2018-05-31T19:15:05.197Z,21.50
2018-05-31T19:17:33.720Z,21.40
2018-05-31T19:20:01.525Z,21.40
2018-05-31T19:22:29.446Z,21.40
2018-05-31T19:25:02.786Z,21.50
2018-05-31T19:27:32.480Z,21.40
2018-05-31T19:30:06.572Z,21.30
2018-05-31T19:32:34.390Z,21.30
2018-05-31T19:35:03.540Z,21.30
2018-05-31T19:37:33.046Z,21.40
2018-05-31T19:40:01.344Z,21.30
2018-05-31T19:42:34.745Z,21.30
2018-05-31T19:45:03.259Z,21.30
2018-05-31T19:47:30.961Z,21.30
2018-05-31T19:49:58.884Z,21.30
2018-05-31T19:52:32.253Z,21.30
2018-05-31T19:55:00.807Z,21.20
2018-05-31T19:57:28.564Z,21.20
2018-05-31T20:00:02.211Z,21.10
2018-05-31T20:02:36.900Z,21.00
2018-05-31T20:05:05.226Z,21.00
2018-05-31T20:07:33.576Z,20.90
2018-05-31T20:10:01.413Z,20.90
2018-05-31T20:12:29.286Z,20.80
2018-05-31T20:14:57.005Z,20.70
2018-05-31T20:17:29.544Z,20.60
2018-05-31T20:19:58.045Z,20.60
2018-05-31T20:22:25.821Z,20.60
2018-05-31T20:24:53.531Z,20.50
2018-05-31T20:27:21.243Z,20.40
2018-05-31T20:29:48.986Z,20.40
2018-05-31T20:32:17.492Z,20.30
2018-05-31T20:34:45.200Z,20.40
2018-05-31T20:37:13.397Z,20.30
2018-05-31T20:39:41.901Z,20.40
2018-05-31T20:42:09.607Z,20.30
2018-05-31T20:44:37.763Z,20.30
2018-05-31T20:47:05.463Z,20.30
2018-05-31T20:49:33.169Z,20.30
2018-05-31T20:52:00.916Z,20.30
2018-05-31T20:54:28.625Z,20.30
2018-05-31T20:56:56.467Z,20.20
2018-05-31T20:59:24.164Z,20.20
2018-05-31T21:01:51.858Z,20.20
2018-05-31T21:04:20.366Z,20.20
2018-05-31T21:06:48.102Z,20.10
2018-05-31T21:09:16.605Z,20.20
2018-05-31T21:11:44.445Z,20.20
2018-05-31T21:14:12.927Z,20.20
2018-05-31T21:16:41.405Z,20.20
2018-05-31T21:19:09.898Z,20.20
2018-05-31T21:21:37.715Z,20.20
2018-05-31T21:24:05.807Z,20.10
2018-05-31T21:26:33.517Z,20.10
2018-05-31T21:29:01.241Z,20.00
2018-05-31T21:31:29.761Z,19.90
2018-05-31T21:33:57.472Z,19.90
2018-05-31T21:36:25.209Z,19.80
2018-05-31T21:38:52.922Z,19.80
2018-05-31T21:41:20.696Z,19.80
2018-05-31T21:43:48.407Z,19.70
2018-05-31T21:46:16.115Z,19.70
2018-05-31T21:48:43.900Z,19.60
2018-05-31T21:51:11.628Z,19.50
2018-05-31T21:53:40.104Z,19.40
2018-05-31T21:56:08.711Z,19.40
2018-05-31T21:58:36.404Z,19.30
2018-05-31T22:01:04.172Z,19.40
2018-05-31T22:03:31.915Z,19.50
2018-05-31T22:05:59.694Z,19.50
2018-05-31T22:08:27.400Z,19.60
2018-05-31T22:10:55.870Z,19.60
2018-05-31T22:13:24.362Z,19.60
2018-05-31T22:15:52.836Z,19.60
2018-05-31T22:18:21.377Z,19.50
2018-05-31T22:20:49.072Z,19.50
2018-05-31T22:23:17.544Z,19.40
2018-05-31T22:25:45.286Z,19.30
2018-05-31T22:28:12.989Z,19.40
2018-05-31T22:30:41.471Z,19.50
2018-05-31T22:33:10.065Z,19.50
2018-05-31T22:35:38.527Z,19.30
2018-05-31T22:38:07.019Z,19.30
2018-05-31T22:40:35.519Z,19.30
2018-05-31T22:43:03.233Z,19.30
2018-05-31T22:45:30.984Z,19.30
2018-05-31T22:47:58.747Z,19.30
2018-05-31T22:50:26.569Z,19.30
2018-05-31T22:52:54.267Z,19.40
2018-05-31T22:55:22.000Z,19.40
2018-05-31T22:57:49.867Z,19.30
2018-05-31T23:00:17.669Z,19.30
2018-05-31T23:02:45.389Z,19.30
2018-05-31T23:05:13.140Z,19.20
2018-05-31T23:07:40.889Z,19.10
2018-05-31T23:10:09.352Z,19.20
2018-05-31T23:12:37.871Z,19.30
2018-05-31T23:15:05.599Z,19.30
2018-05-31T23:17:34.060Z,19.40
2018-05-31T23:20:01.829Z,19.40
2018-05-31T23:22:29.539Z,19.40
2018-05-31T23:24:57.275Z,19.50
2018-05-31T23:27:25.748Z,19.60
2018-05-31T23:29:54.659Z,19.50
2018-05-31T23:32:22.355Z,19.50
2018-05-31T23:34:50.050Z,19.50
2018-05-31T23:37:17.807Z,19.60
2018-05-31T23:39:45.503Z,19.60
2018-05-31T23:42:13.207Z,19.60
2018-05-31T23:44:41.414Z,19.60
2018-05-31T23:47:09.887Z,19.60
2018-05-31T23:49:37.629Z,19.60
2018-05-31T23:52:05.515Z,19.60
2018-05-31T23:54:33.223Z,19.30
2018-05-31T23:57:00.928Z,19.30
2018-05-31T23:59:28.664Z,19.40
